sensor_id;sensor_type;location;lat;lon;timestamp;temperature;humidity
27544;DHT22;17996;51.056;3.656;2023-03-23T00:01:28;13.70;99.90
27544;DHT22;17996;51.056;3.656;2023-03-23T00:03:57;13.70;99.90
27544;DHT22;17996;51.056;3.656;2023-03-23T00:06:25;13.70;99.90
27544;DHT22;17996;51.056;3.656;2023-03-23T00:08:52;13.70;99.90
27544;DHT22;17996;51.056;3.656;2023-03-23T00:11:26;13.70;99.90
27544;DHT22;17996;51.056;3.656;2023-03-23T00:13:54;13.60;99.90
27544;DHT22;17996;51.056;3.656;2023-03-23T00:16:24;13.70;99.90
27544;DHT22;17996;51.056;3.656;2023-03-23T00:19:04;13.70;99.90
27544;DHT22;17996;51.056;3.656;2023-03-23T00:21:33;13.70;99.90
27544;DHT22;17996;51.056;3.656;2023-03-23T00:24:15;13.80;99.90
27544;DHT22;17996;51.056;3.656;2023-03-23T00:26:48;13.70;99.90
27544;DHT22;17996;51.056;3.656;2023-03-23T00:29:16;13.70;99.90
27544;DHT22;17996;51.056;3.656;2023-03-23T00:31:44;13.60;99.90
27544;DHT22;17996;51.056;3.656;2023-03-23T00:34:18;13.60;99.90
27544;DHT22;17996;51.056;3.656;2023-03-23T00:36:49;13.50;99.90
27544;DHT22;17996;51.056;3.656;2023-03-23T00:39:16;13.40;99.90
27544;DHT22;17996;51.056;3.656;2023-03-23T00:41:43;13.40;99.90
27544;DHT22;17996;51.056;3.656;2023-03-23T00:44:09;13.40;99.90
27544;DHT22;17996;51.056;3.656;2023-03-23T00:46:35;13.50;99.90
27544;DHT22;17996;51.056;3.656;2023-03-23T00:49:11;13.40;99.90
27544;DHT22;17996;51.056;3.656;2023-03-23T00:51:38;13.40;99.90
27544;DHT22;17996;51.056;3.656;2023-03-23T00:54:04;13.40;99.90
27544;DHT22;17996;51.056;3.656;2023-03-23T00:56:30;13.40;99.90
27544;DHT22;17996;51.056;3.656;2023-03-23T00:58:56;13.40;99.90
27544;DHT22;17996;51.056;3.656;2023-03-23T01:01:22;13.40;99.90
27544;DHT22;17996;51.056;3.656;2023-03-23T01:03:47;13.40;99.90
27544;DHT22;17996;51.056;3.656;2023-03-23T01:06:15;13.50;99.90
27544;DHT22;17996;51.056;3.656;2023-03-23T01:08:41;13.50;99.90
27544;DHT22;17996;51.056;3.656;2023-03-23T01:11:13;13.50;99.90
27544;DHT22;17996;51.056;3.656;2023-03-23T01:13:39;13.50;99.90
27544;DHT22;17996;51.056;3.656;2023-03-23T01:16:06;13.50;99.90
27544;DHT22;17996;51.056;3.656;2023-03-23T01:18:32;13.50;99.90
27544;DHT22;17996;51.056;3.656;2023-03-23T01:20:57;13.50;99.90
27544;DHT22;17996;51.056;3.656;2023-03-23T01:23:23;13.50;99.90
27544;DHT22;17996;51.056;3.656;2023-03-23T01:25:49;13.50;99.90
27544;DHT22;17996;51.056;3.656;2023-03-23T01:28:15;13.60;99.90
27544;DHT22;17996;51.056;3.656;2023-03-23T01:30:41;13.50;99.90
27544;DHT22;17996;51.056;3.656;2023-03-23T01:33:06;13.60;99.90
27544;DHT22;17996;51.056;3.656;2023-03-23T01:35:32;13.50;99.90
27544;DHT22;17996;51.056;3.656;2023-03-23T01:37:58;13.50;99.90
27544;DHT22;17996;51.056;3.656;2023-03-23T01:40:26;13.50;99.90
27544;DHT22;17996;51.056;3.656;2023-03-23T01:42:52;13.50;99.90
27544;DHT22;17996;51.056;3.656;2023-03-23T01:47:52;13.50;99.90
27544;DHT22;17996;51.056;3.656;2023-03-23T01:50:22;13.50;99.90
27544;DHT22;17996;51.056;3.656;2023-03-23T01:52:51;13.50;99.90
27544;DHT22;17996;51.056;3.656;2023-03-23T01:55:18;13.50;99.90
27544;DHT22;17996;51.056;3.656;2023-03-23T01:57:45;13.50;99.90
27544;DHT22;17996;51.056;3.656;2023-03-23T02:00:11;13.50;99.90
27544;DHT22;17996;51.056;3.656;2023-03-23T02:02:44;13.60;99.90
27544;DHT22;17996;51.056;3.656;2023-03-23T02:05:15;13.70;99.90
27544;DHT22;17996;51.056;3.656;2023-03-23T02:07:46;13.70;99.90
27544;DHT22;17996;51.056;3.656;2023-03-23T02:10:13;13.70;99.90
27544;DHT22;17996;51.056;3.656;2023-03-23T02:12:39;13.60;99.90
27544;DHT22;17996;51.056;3.656;2023-03-23T02:15:05;13.70;99.90
27544;DHT22;17996;51.056;3.656;2023-03-23T02:17:39;13.60;99.90
27544;DHT22;17996;51.056;3.656;2023-03-23T02:23:05;13.70;99.90
27544;DHT22;17996;51.056;3.656;2023-03-23T02:34:12;13.70;99.90
27544;DHT22;17996;51.056;3.656;2023-03-23T02:36:50;13.70;99.90
27544;DHT22;17996;51.056;3.656;2023-03-23T02:41:52;13.70;99.90
27544;DHT22;17996;51.056;3.656;2023-03-23T02:44:21;13.70;99.90
27544;DHT22;17996;51.056;3.656;2023-03-23T02:46:48;13.70;99.90
27544;DHT22;17996;51.056;3.656;2023-03-23T02:49:15;13.70;99.90
27544;DHT22;17996;51.056;3.656;2023-03-23T02:51:44;13.70;99.90
27544;DHT22;17996;51.056;3.656;2023-03-23T02:54:12;13.70;99.90
27544;DHT22;17996;51.056;3.656;2023-03-23T02:56:39;13.70;99.90
27544;DHT22;17996;51.056;3.656;2023-03-23T02:59:05;13.70;99.90
27544;DHT22;17996;51.056;3.656;2023-03-23T03:04:13;13.70;99.90
27544;DHT22;17996;51.056;3.656;2023-03-23T03:12:53;13.70;99.90
27544;DHT22;17996;51.056;3.656;2023-03-23T03:20:44;13.60;99.90
27544;DHT22;17996;51.056;3.656;2023-03-23T03:23:12;13.60;99.90
27544;DHT22;17996;51.056;3.656;2023-03-23T03:25:42;13.60;99.90
27544;DHT22;17996;51.056;3.656;2023-03-23T03:28:17;13.60;99.90
27544;DHT22;17996;51.056;3.656;2023-03-23T03:30:55;13.60;99.90
27544;DHT22;17996;51.056;3.656;2023-03-23T03:33:23;13.60;99.90
27544;DHT22;17996;51.056;3.656;2023-03-23T03:35:53;13.50;99.90
27544;DHT22;17996;51.056;3.656;2023-03-23T03:38:19;13.50;99.90
27544;DHT22;17996;51.056;3.656;2023-03-23T03:40:45;13.60;99.90
27544;DHT22;17996;51.056;3.656;2023-03-23T03:43:11;13.50;99.90
27544;DHT22;17996;51.056;3.656;2023-03-23T03:45:36;13.50;99.90
27544;DHT22;17996;51.056;3.656;2023-03-23T03:48:02;13.50;99.90
27544;DHT22;17996;51.056;3.656;2023-03-23T03:50:28;13.50;99.90
27544;DHT22;17996;51.056;3.656;2023-03-23T03:52:54;13.50;99.90
27544;DHT22;17996;51.056;3.656;2023-03-23T03:55:20;13.50;99.90
27544;DHT22;17996;51.056;3.656;2023-03-23T03:57:46;13.50;99.90
27544;DHT22;17996;51.056;3.656;2023-03-23T04:00:12;13.50;99.90
27544;DHT22;17996;51.056;3.656;2023-03-23T04:02:41;13.50;99.90
27544;DHT22;17996;51.056;3.656;2023-03-23T04:05:08;13.40;99.90
27544;DHT22;17996;51.056;3.656;2023-03-23T04:07:36;13.50;99.90
27544;DHT22;17996;51.056;3.656;2023-03-23T04:10:06;13.50;99.90
27544;DHT22;17996;51.056;3.656;2023-03-23T04:12:32;13.50;99.90
27544;DHT22;17996;51.056;3.656;2023-03-23T04:14:58;13.50;99.90
27544;DHT22;17996;51.056;3.656;2023-03-23T04:17:24;13.50;99.90
27544;DHT22;17996;51.056;3.656;2023-03-23T04:19:53;13.50;99.90
27544;DHT22;17996;51.056;3.656;2023-03-23T04:22:22;13.50;99.90
27544;DHT22;17996;51.056;3.656;2023-03-23T04:24:50;13.50;99.90
27544;DHT22;17996;51.056;3.656;2023-03-23T04:27:17;13.50;99.90
27544;DHT22;17996;51.056;3.656;2023-03-23T04:29:42;13.50;99.90
27544;DHT22;17996;51.056;3.656;2023-03-23T04:32:14;13.50;99.90
27544;DHT22;17996;51.056;3.656;2023-03-23T04:34:39;13.50;99.90
27544;DHT22;17996;51.056;3.656;2023-03-23T04:37:06;13.50;99.90
27544;DHT22;17996;51.056;3.656;2023-03-23T04:39:33;13.50;99.90
27544;DHT22;17996;51.056;3.656;2023-03-23T04:41:59;13.50;99.90
27544;DHT22;17996;51.056;3.656;2023-03-23T04:44:26;13.50;99.90
27544;DHT22;17996;51.056;3.656;2023-03-23T04:46:53;13.50;99.90
27544;DHT22;17996;51.056;3.656;2023-03-23T04:49:19;13.50;99.90
27544;DHT22;17996;51.056;3.656;2023-03-23T04:51:48;13.50;99.90
27544;DHT22;17996;51.056;3.656;2023-03-23T04:54:16;13.50;99.90
27544;DHT22;17996;51.056;3.656;2023-03-23T04:56:41;13.60;99.90
27544;DHT22;17996;51.056;3.656;2023-03-23T04:59:07;13.60;99.90
27544;DHT22;17996;51.056;3.656;2023-03-23T05:01:33;13.50;99.90
27544;DHT22;17996;51.056;3.656;2023-03-23T05:04:01;13.50;99.90
27544;DHT22;17996;51.056;3.656;2023-03-23T05:06:27;13.50;99.90
27544;DHT22;17996;51.056;3.656;2023-03-23T05:08:53;13.40;99.90
27544;DHT22;17996;51.056;3.656;2023-03-23T05:11:19;13.40;99.90
27544;DHT22;17996;51.056;3.656;2023-03-23T05:13:44;13.30;99.90
27544;DHT22;17996;51.056;3.656;2023-03-23T05:16:10;13.30;99.90
27544;DHT22;17996;51.056;3.656;2023-03-23T05:18:36;13.30;99.90
27544;DHT22;17996;51.056;3.656;2023-03-23T05:21:03;13.30;99.90
27544;DHT22;17996;51.056;3.656;2023-03-23T05:23:29;13.30;99.90
27544;DHT22;17996;51.056;3.656;2023-03-23T05:25:57;13.30;99.90
27544;DHT22;17996;51.056;3.656;2023-03-23T05:28:26;13.30;99.90
27544;DHT22;17996;51.056;3.656;2023-03-23T05:30:53;13.30;99.90
27544;DHT22;17996;51.056;3.656;2023-03-23T05:33:19;13.20;99.90
27544;DHT22;17996;51.056;3.656;2023-03-23T05:35:46;13.20;99.90
27544;DHT22;17996;51.056;3.656;2023-03-23T05:38:13;13.10;99.90
27544;DHT22;17996;51.056;3.656;2023-03-23T05:40:40;13.00;99.90
27544;DHT22;17996;51.056;3.656;2023-03-23T05:43:07;13.00;99.90
27544;DHT22;17996;51.056;3.656;2023-03-23T05:45:33;12.80;99.90
27544;DHT22;17996;51.056;3.656;2023-03-23T05:48:00;12.70;99.90
27544;DHT22;17996;51.056;3.656;2023-03-23T05:50:26;12.60;99.90
27544;DHT22;17996;51.056;3.656;2023-03-23T05:52:54;12.50;99.90
27544;DHT22;17996;51.056;3.656;2023-03-23T05:55:20;12.40;99.90
27544;DHT22;17996;51.056;3.656;2023-03-23T05:57:46;12.30;99.90
27544;DHT22;17996;51.056;3.656;2023-03-23T06:00:12;12.20;99.90
27544;DHT22;17996;51.056;3.656;2023-03-23T06:02:47;12.20;99.90
27544;DHT22;17996;51.056;3.656;2023-03-23T06:05:13;12.10;99.90
27544;DHT22;17996;51.056;3.656;2023-03-23T06:07:39;12.10;99.90
27544;DHT22;17996;51.056;3.656;2023-03-23T06:10:06;12.10;99.90
27544;DHT22;17996;51.056;3.656;2023-03-23T06:12:32;12.20;99.90
27544;DHT22;17996;51.056;3.656;2023-03-23T06:14:58;12.10;99.90
27544;DHT22;17996;51.056;3.656;2023-03-23T06:17:24;12.10;99.90
27544;DHT22;17996;51.056;3.656;2023-03-23T06:19:50;12.10;99.90
27544;DHT22;17996;51.056;3.656;2023-03-23T06:22:17;12.20;99.90
27544;DHT22;17996;51.056;3.656;2023-03-23T06:24:43;12.20;99.90
27544;DHT22;17996;51.056;3.656;2023-03-23T06:27:09;12.20;99.90
27544;DHT22;17996;51.056;3.656;2023-03-23T06:29:35;12.20;99.90
27544;DHT22;17996;51.056;3.656;2023-03-23T06:32:04;12.20;99.90
27544;DHT22;17996;51.056;3.656;2023-03-23T06:34:30;12.20;99.90
27544;DHT22;17996;51.056;3.656;2023-03-23T06:36:56;12.20;99.90
27544;DHT22;17996;51.056;3.656;2023-03-23T06:39:22;12.20;99.90
27544;DHT22;17996;51.056;3.656;2023-03-23T06:41:49;12.20;99.90
27544;DHT22;17996;51.056;3.656;2023-03-23T06:44:15;12.20;99.90
27544;DHT22;17996;51.056;3.656;2023-03-23T06:46:41;12.20;99.90
27544;DHT22;17996;51.056;3.656;2023-03-23T06:49:07;12.30;99.90
27544;DHT22;17996;51.056;3.656;2023-03-23T06:51:34;12.20;99.90
27544;DHT22;17996;51.056;3.656;2023-03-23T06:53:59;12.20;99.90
27544;DHT22;17996;51.056;3.656;2023-03-23T06:56:25;12.30;99.90
27544;DHT22;17996;51.056;3.656;2023-03-23T06:58:51;12.30;99.90
27544;DHT22;17996;51.056;3.656;2023-03-23T07:01:17;12.30;99.90
27544;DHT22;17996;51.056;3.656;2023-03-23T07:03:43;12.30;99.90
27544;DHT22;17996;51.056;3.656;2023-03-23T07:06:10;12.30;99.90
27544;DHT22;17996;51.056;3.656;2023-03-23T07:08:36;12.30;99.90
27544;DHT22;17996;51.056;3.656;2023-03-23T07:11:02;12.30;99.90
27544;DHT22;17996;51.056;3.656;2023-03-23T07:13:28;12.30;99.90
27544;DHT22;17996;51.056;3.656;2023-03-23T07:15:54;12.30;99.90
27544;DHT22;17996;51.056;3.656;2023-03-23T07:18:20;12.20;99.90
27544;DHT22;17996;51.056;3.656;2023-03-23T07:20:48;12.20;99.90
27544;DHT22;17996;51.056;3.656;2023-03-23T07:23:14;12.20;99.90
27544;DHT22;17996;51.056;3.656;2023-03-23T07:25:40;12.30;99.90
27544;DHT22;17996;51.056;3.656;2023-03-23T07:28:06;12.30;99.90
27544;DHT22;17996;51.056;3.656;2023-03-23T07:30:32;12.40;99.90
27544;DHT22;17996;51.056;3.656;2023-03-23T07:32:58;12.40;99.90
27544;DHT22;17996;51.056;3.656;2023-03-23T07:35:24;12.50;99.90
27544;DHT22;17996;51.056;3.656;2023-03-23T07:37:50;12.60;99.90
27544;DHT22;17996;51.056;3.656;2023-03-23T07:40:17;12.60;99.90
27544;DHT22;17996;51.056;3.656;2023-03-23T07:42:52;12.60;99.90
27544;DHT22;17996;51.056;3.656;2023-03-23T07:45:18;12.60;99.90
27544;DHT22;17996;51.056;3.656;2023-03-23T07:47:44;12.60;99.90
27544;DHT22;17996;51.056;3.656;2023-03-23T07:50:10;12.60;99.90
27544;DHT22;17996;51.056;3.656;2023-03-23T07:52:38;12.60;99.90
27544;DHT22;17996;51.056;3.656;2023-03-23T07:55:05;12.60;99.90
27544;DHT22;17996;51.056;3.656;2023-03-23T07:57:32;12.60;99.90
27544;DHT22;17996;51.056;3.656;2023-03-23T07:59:59;12.70;99.90
27544;DHT22;17996;51.056;3.656;2023-03-23T08:02:25;12.70;99.90
27544;DHT22;17996;51.056;3.656;2023-03-23T08:04:52;12.60;99.90
27544;DHT22;17996;51.056;3.656;2023-03-23T08:07:19;12.50;99.90
27544;DHT22;17996;51.056;3.656;2023-03-23T08:09:46;12.50;99.90
27544;DHT22;17996;51.056;3.656;2023-03-23T08:12:13;12.40;99.90
27544;DHT22;17996;51.056;3.656;2023-03-23T08:14:39;12.40;99.90
27544;DHT22;17996;51.056;3.656;2023-03-23T08:17:07;12.40;99.90
27544;DHT22;17996;51.056;3.656;2023-03-23T08:19:35;12.40;99.90
27544;DHT22;17996;51.056;3.656;2023-03-23T08:22:03;12.40;99.90
27544;DHT22;17996;51.056;3.656;2023-03-23T08:24:30;12.40;99.90
27544;DHT22;17996;51.056;3.656;2023-03-23T08:26:56;12.40;99.90
27544;DHT22;17996;51.056;3.656;2023-03-23T08:29:22;12.60;99.90
27544;DHT22;17996;51.056;3.656;2023-03-23T08:31:47;12.60;99.90
27544;DHT22;17996;51.056;3.656;2023-03-23T08:34:13;12.70;99.90
27544;DHT22;17996;51.056;3.656;2023-03-23T08:36:39;12.80;99.90
27544;DHT22;17996;51.056;3.656;2023-03-23T08:39:05;13.00;99.90
27544;DHT22;17996;51.056;3.656;2023-03-23T08:41:31;13.20;99.90
27544;DHT22;17996;51.056;3.656;2023-03-23T08:43:57;13.40;99.90
27544;DHT22;17996;51.056;3.656;2023-03-23T08:46:23;13.50;99.90
27544;DHT22;17996;51.056;3.656;2023-03-23T08:48:49;13.40;99.90
27544;DHT22;17996;51.056;3.656;2023-03-23T08:51:15;13.40;99.90
27544;DHT22;17996;51.056;3.656;2023-03-23T08:53:40;13.30;99.90
27544;DHT22;17996;51.056;3.656;2023-03-23T08:56:09;13.30;99.90
27544;DHT22;17996;51.056;3.656;2023-03-23T08:58:37;13.30;99.90
27544;DHT22;17996;51.056;3.656;2023-03-23T09:01:04;13.30;99.90
27544;DHT22;17996;51.056;3.656;2023-03-23T09:03:33;13.40;99.90
27544;DHT22;17996;51.056;3.656;2023-03-23T09:06:01;13.40;99.90
27544;DHT22;17996;51.056;3.656;2023-03-23T09:08:28;13.40;99.90
27544;DHT22;17996;51.056;3.656;2023-03-23T09:11:04;13.50;99.90
27544;DHT22;17996;51.056;3.656;2023-03-23T09:13:30;13.80;99.90
27544;DHT22;17996;51.056;3.656;2023-03-23T09:15:56;13.90;99.90
27544;DHT22;17996;51.056;3.656;2023-03-23T09:18:23;14.10;99.90
27544;DHT22;17996;51.056;3.656;2023-03-23T09:20:53;14.10;99.90
27544;DHT22;17996;51.056;3.656;2023-03-23T09:23:19;14.20;99.90
27544;DHT22;17996;51.056;3.656;2023-03-23T09:25:46;14.10;99.90
27544;DHT22;17996;51.056;3.656;2023-03-23T09:28:12;14.10;99.90
27544;DHT22;17996;51.056;3.656;2023-03-23T09:30:39;14.10;99.90
27544;DHT22;17996;51.056;3.656;2023-03-23T09:33:07;14.20;99.90
27544;DHT22;17996;51.056;3.656;2023-03-23T09:35:34;14.30;99.90
27544;DHT22;17996;51.056;3.656;2023-03-23T09:38:02;14.40;99.90
27544;DHT22;17996;51.056;3.656;2023-03-23T09:43:47;14.60;99.90
27544;DHT22;17996;51.056;3.656;2023-03-23T09:49:37;14.70;99.90
27544;DHT22;17996;51.056;3.656;2023-03-23T09:52:16;14.80;99.90
27544;DHT22;17996;51.056;3.656;2023-03-23T09:54:43;14.80;99.90
27544;DHT22;17996;51.056;3.656;2023-03-23T09:57:28;14.80;99.90
27544;DHT22;17996;51.056;3.656;2023-03-23T10:02:59;15.00;99.90
27544;DHT22;17996;51.056;3.656;2023-03-23T10:05:37;15.00;99.90
27544;DHT22;17996;51.056;3.656;2023-03-23T10:08:17;15.10;99.90
27544;DHT22;17996;51.056;3.656;2023-03-23T10:16:36;15.30;99.90
27544;DHT22;17996;51.056;3.656;2023-03-23T10:19:40;15.40;99.90
27544;DHT22;17996;51.056;3.656;2023-03-23T10:22:14;15.50;99.90
27544;DHT22;17996;51.056;3.656;2023-03-23T10:28:41;15.60;99.90
27544;DHT22;17996;51.056;3.656;2023-03-23T10:30:35;15.60;99.90
27544;DHT22;17996;51.056;3.656;2023-03-23T10:33:25;15.50;99.90
27544;DHT22;17996;51.056;3.656;2023-03-23T10:41:29;15.10;99.90
27544;DHT22;17996;51.056;3.656;2023-03-23T10:43:55;15.10;99.90
27544;DHT22;17996;51.056;3.656;2023-03-23T10:48:58;15.10;99.90
27544;DHT22;17996;51.056;3.656;2023-03-23T10:51:36;15.10;99.90
27544;DHT22;17996;51.056;3.656;2023-03-23T10:54:04;15.00;99.90
27544;DHT22;17996;51.056;3.656;2023-03-23T10:56:44;15.00;99.90
27544;DHT22;17996;51.056;3.656;2023-03-23T10:59:25;14.90;99.90
27544;DHT22;17996;51.056;3.656;2023-03-23T11:01:54;14.90;99.90
27544;DHT22;17996;51.056;3.656;2023-03-23T11:04:22;14.80;99.90
27544;DHT22;17996;51.056;3.656;2023-03-23T11:06:52;14.90;99.90
27544;DHT22;17996;51.056;3.656;2023-03-23T11:09:20;14.90;99.90
27544;DHT22;17996;51.056;3.656;2023-03-23T11:11:52;15.00;99.90
27544;DHT22;17996;51.056;3.656;2023-03-23T11:14:32;14.90;99.90
27544;DHT22;17996;51.056;3.656;2023-03-23T11:17:04;15.00;99.90
27544;DHT22;17996;51.056;3.656;2023-03-23T11:19:34;15.20;99.90
27544;DHT22;17996;51.056;3.656;2023-03-23T11:24:35;15.70;99.90
27544;DHT22;17996;51.056;3.656;2023-03-23T11:27:03;15.70;99.90
27544;DHT22;17996;51.056;3.656;2023-03-23T11:29:32;15.80;99.90
27544;DHT22;17996;51.056;3.656;2023-03-23T11:34:32;15.80;99.90
27544;DHT22;17996;51.056;3.656;2023-03-23T11:37:05;15.80;99.90
27544;DHT22;17996;51.056;3.656;2023-03-23T11:39:34;15.60;99.90
27544;DHT22;17996;51.056;3.656;2023-03-23T11:42:20;15.40;99.90
27544;DHT22;17996;51.056;3.656;2023-03-23T11:44:46;15.20;99.90
27544;DHT22;17996;51.056;3.656;2023-03-23T11:47:36;15.20;99.90
27544;DHT22;17996;51.056;3.656;2023-03-23T11:55:19;15.50;99.90
27544;DHT22;17996;51.056;3.656;2023-03-23T11:57:46;15.70;99.90
27544;DHT22;17996;51.056;3.656;2023-03-23T12:00:17;15.50;99.90
27544;DHT22;17996;51.056;3.656;2023-03-23T12:03:01;15.40;99.90
27544;DHT22;17996;51.056;3.656;2023-03-23T12:10:47;15.10;99.90
27544;DHT22;17996;51.056;3.656;2023-03-23T12:21:58;15.30;99.90
27544;DHT22;17996;51.056;3.656;2023-03-23T12:29:41;15.30;99.90
27544;DHT22;17996;51.056;3.656;2023-03-23T12:42:54;15.40;99.90
27544;DHT22;17996;51.056;3.656;2023-03-23T12:48:59;15.60;99.90
27544;DHT22;17996;51.056;3.656;2023-03-23T12:56:49;15.50;99.90
27544;DHT22;17996;51.056;3.656;2023-03-23T13:00:24;15.50;99.90
27544;DHT22;17996;51.056;3.656;2023-03-23T13:07:47;15.70;99.90
27544;DHT22;17996;51.056;3.656;2023-03-23T13:10:32;15.80;99.90
27544;DHT22;17996;51.056;3.656;2023-03-23T13:12:59;15.90;99.90
27544;DHT22;17996;51.056;3.656;2023-03-23T13:23:31;16.90;99.90
27544;DHT22;17996;51.056;3.656;2023-03-23T13:26:08;17.10;99.90
27544;DHT22;17996;51.056;3.656;2023-03-23T13:31:38;17.50;99.90
27544;DHT22;17996;51.056;3.656;2023-03-23T13:36:41;17.40;99.90
27544;DHT22;17996;51.056;3.656;2023-03-23T13:39:50;17.40;99.90
27544;DHT22;17996;51.056;3.656;2023-03-23T13:42:22;17.60;99.90
27544;DHT22;17996;51.056;3.656;2023-03-23T13:49:56;17.90;99.90
27544;DHT22;17996;51.056;3.656;2023-03-23T13:54:51;17.80;99.90
27544;DHT22;17996;51.056;3.656;2023-03-23T13:57:35;17.60;99.90
27544;DHT22;17996;51.056;3.656;2023-03-23T14:03:25;17.40;99.90
27544;DHT22;17996;51.056;3.656;2023-03-23T14:08:40;17.20;99.90
27544;DHT22;17996;51.056;3.656;2023-03-23T14:11:13;17.20;99.90
27544;DHT22;17996;51.056;3.656;2023-03-23T14:16:32;17.20;99.90
27544;DHT22;17996;51.056;3.656;2023-03-23T14:19:03;17.10;99.90
27544;DHT22;17996;51.056;3.656;2023-03-23T14:21:40;17.00;99.90
27544;DHT22;17996;51.056;3.656;2023-03-23T14:24:11;17.00;99.90
27544;DHT22;17996;51.056;3.656;2023-03-23T14:26:38;17.20;99.90
27544;DHT22;17996;51.056;3.656;2023-03-23T14:29:05;17.20;99.90
27544;DHT22;17996;51.056;3.656;2023-03-23T14:31:32;17.20;99.90
27544;DHT22;17996;51.056;3.656;2023-03-23T14:34:04;17.20;99.90
27544;DHT22;17996;51.056;3.656;2023-03-23T14:36:32;17.30;99.90
27544;DHT22;17996;51.056;3.656;2023-03-23T14:41:35;17.50;99.90
27544;DHT22;17996;51.056;3.656;2023-03-23T14:44:03;17.60;99.90
27544;DHT22;17996;51.056;3.656;2023-03-23T14:46:30;17.80;99.90
27544;DHT22;17996;51.056;3.656;2023-03-23T14:49:00;17.80;99.90
27544;DHT22;17996;51.056;3.656;2023-03-23T14:51:26;18.00;99.90
27544;DHT22;17996;51.056;3.656;2023-03-23T14:53:53;18.10;99.90
27544;DHT22;17996;51.056;3.656;2023-03-23T14:56:21;18.20;99.90
27544;DHT22;17996;51.056;3.656;2023-03-23T14:58:50;18.30;99.90
27544;DHT22;17996;51.056;3.656;2023-03-23T15:06:22;19.00;99.90
27544;DHT22;17996;51.056;3.656;2023-03-23T15:08:52;19.10;99.90
27544;DHT22;17996;51.056;3.656;2023-03-23T15:11:29;19.00;99.90
27544;DHT22;17996;51.056;3.656;2023-03-23T15:14:00;19.10;99.90
27544;DHT22;17996;51.056;3.656;2023-03-23T15:16:33;19.00;99.90
27544;DHT22;17996;51.056;3.656;2023-03-23T15:21:29;18.80;99.90
27544;DHT22;17996;51.056;3.656;2023-03-23T15:23:55;18.70;99.90
27544;DHT22;17996;51.056;3.656;2023-03-23T15:29:13;18.10;99.90
27544;DHT22;17996;51.056;3.656;2023-03-23T15:31:41;17.90;99.90
27544;DHT22;17996;51.056;3.656;2023-03-23T15:36:59;17.60;99.90
27544;DHT22;17996;51.056;3.656;2023-03-23T15:39:26;17.60;99.90
27544;DHT22;17996;51.056;3.656;2023-03-23T15:41:53;18.00;99.90
27544;DHT22;17996;51.056;3.656;2023-03-23T15:44:31;18.40;99.90
27544;DHT22;17996;51.056;3.656;2023-03-23T15:47:16;18.70;99.90
27544;DHT22;17996;51.056;3.656;2023-03-23T15:49:45;18.60;99.90
27544;DHT22;17996;51.056;3.656;2023-03-23T15:52:12;18.40;99.90
27544;DHT22;17996;51.056;3.656;2023-03-23T15:54:38;18.10;99.90
27544;DHT22;17996;51.056;3.656;2023-03-23T15:57:11;17.80;99.90
27544;DHT22;17996;51.056;3.656;2023-03-23T15:59:37;17.50;99.90
27544;DHT22;17996;51.056;3.656;2023-03-23T16:02:03;17.30;99.90
27544;DHT22;17996;51.056;3.656;2023-03-23T16:04:28;17.20;99.90
27544;DHT22;17996;51.056;3.656;2023-03-23T16:06:55;17.00;99.90
27544;DHT22;17996;51.056;3.656;2023-03-23T16:09:23;16.80;99.90
27544;DHT22;17996;51.056;3.656;2023-03-23T16:11:49;16.60;99.90
27544;DHT22;17996;51.056;3.656;2023-03-23T16:14:15;16.70;99.90
27544;DHT22;17996;51.056;3.656;2023-03-23T16:16:45;16.70;99.90
27544;DHT22;17996;51.056;3.656;2023-03-23T16:19:13;16.70;99.90
27544;DHT22;17996;51.056;3.656;2023-03-23T16:21:39;16.70;99.90
27544;DHT22;17996;51.056;3.656;2023-03-23T16:24:06;16.70;99.90
27544;DHT22;17996;51.056;3.656;2023-03-23T16:26:33;16.70;99.90
27544;DHT22;17996;51.056;3.656;2023-03-23T16:28:58;16.70;99.90
27544;DHT22;17996;51.056;3.656;2023-03-23T16:31:25;16.70;99.90
27544;DHT22;17996;51.056;3.656;2023-03-23T16:33:50;16.70;99.90
27544;DHT22;17996;51.056;3.656;2023-03-23T16:36:16;16.60;99.90
27544;DHT22;17996;51.056;3.656;2023-03-23T16:38:42;16.50;99.90
27544;DHT22;17996;51.056;3.656;2023-03-23T16:41:08;16.50;99.90
27544;DHT22;17996;51.056;3.656;2023-03-23T16:43:34;16.40;99.90
27544;DHT22;17996;51.056;3.656;2023-03-23T16:46:00;16.30;99.90
27544;DHT22;17996;51.056;3.656;2023-03-23T16:48:26;16.30;99.90
27544;DHT22;17996;51.056;3.656;2023-03-23T16:50:52;16.30;99.90
27544;DHT22;17996;51.056;3.656;2023-03-23T16:53:19;16.40;99.90
27544;DHT22;17996;51.056;3.656;2023-03-23T16:55:45;16.40;99.90
27544;DHT22;17996;51.056;3.656;2023-03-23T16:58:14;16.30;99.90
27544;DHT22;17996;51.056;3.656;2023-03-23T17:00:41;16.30;99.90
27544;DHT22;17996;51.056;3.656;2023-03-23T17:03:07;16.20;99.90
27544;DHT22;17996;51.056;3.656;2023-03-23T17:05:34;16.20;99.90
27544;DHT22;17996;51.056;3.656;2023-03-23T17:08:00;16.20;99.90
27544;DHT22;17996;51.056;3.656;2023-03-23T17:10:27;16.20;99.90
27544;DHT22;17996;51.056;3.656;2023-03-23T17:12:54;16.20;99.90
27544;DHT22;17996;51.056;3.656;2023-03-23T17:15:20;16.20;99.90
27544;DHT22;17996;51.056;3.656;2023-03-23T17:17:46;16.20;99.90
27544;DHT22;17996;51.056;3.656;2023-03-23T17:20:12;16.30;99.90
27544;DHT22;17996;51.056;3.656;2023-03-23T17:22:39;16.30;99.90
27544;DHT22;17996;51.056;3.656;2023-03-23T17:25:05;16.20;99.90
27544;DHT22;17996;51.056;3.656;2023-03-23T17:27:31;16.20;99.90
27544;DHT22;17996;51.056;3.656;2023-03-23T17:29:57;16.10;99.90
27544;DHT22;17996;51.056;3.656;2023-03-23T17:32:23;16.20;99.90
27544;DHT22;17996;51.056;3.656;2023-03-23T17:34:50;16.10;99.90
27544;DHT22;17996;51.056;3.656;2023-03-23T17:37:16;16.10;99.90
27544;DHT22;17996;51.056;3.656;2023-03-23T17:39:42;16.10;99.90
27544;DHT22;17996;51.056;3.656;2023-03-23T17:42:07;16.10;99.90
27544;DHT22;17996;51.056;3.656;2023-03-23T17:44:33;16.00;99.90
27544;DHT22;17996;51.056;3.656;2023-03-23T17:46:59;16.00;99.90
27544;DHT22;17996;51.056;3.656;2023-03-23T17:49:25;16.00;99.90
27544;DHT22;17996;51.056;3.656;2023-03-23T17:51:51;15.90;99.90
27544;DHT22;17996;51.056;3.656;2023-03-23T17:54:17;15.90;99.90
27544;DHT22;17996;51.056;3.656;2023-03-23T17:56:43;15.90;99.90
27544;DHT22;17996;51.056;3.656;2023-03-23T17:59:09;15.90;99.90
27544;DHT22;17996;51.056;3.656;2023-03-23T18:01:35;15.90;99.90
27544;DHT22;17996;51.056;3.656;2023-03-23T18:04:01;15.90;99.90
27544;DHT22;17996;51.056;3.656;2023-03-23T18:06:28;15.80;99.90
27544;DHT22;17996;51.056;3.656;2023-03-23T18:08:53;15.80;99.90
27544;DHT22;17996;51.056;3.656;2023-03-23T18:11:19;15.80;99.90
27544;DHT22;17996;51.056;3.656;2023-03-23T18:13:45;15.80;99.90
27544;DHT22;17996;51.056;3.656;2023-03-23T18:16:10;15.80;99.90